createdAt,value
2018-03-30T00:04:22.142Z,13.83
2018-03-30T00:06:49.824Z,13.97
2018-03-30T00:09:29.094Z,13.67
2018-03-30T00:11:56.729Z,13.70
2018-03-30T00:14:24.343Z,13.50
2018-03-30T00:16:51.925Z,14.70
2018-03-30T00:19:19.564Z,14.87
2018-03-30T00:21:47.175Z,14.93
2018-03-30T00:24:14.761Z,15.70
2018-03-30T00:26:43.236Z,15.10
2018-03-30T00:29:11.418Z,15.20
2018-03-30T00:31:38.997Z,14.30
2018-03-30T00:34:06.658Z,15.23
2018-03-30T00:36:34.228Z,14.80
2018-03-30T00:39:01.810Z,15.40
2018-03-30T00:41:30.150Z,14.83
2018-03-30T00:43:57.744Z,15.40
2018-03-30T00:46:25.337Z,15.03
2018-03-30T00:48:53.060Z,14.80
2018-03-30T00:51:20.664Z,14.27
2018-03-30T00:53:48.346Z,15.20
2018-03-30T00:56:16.309Z,15.03
2018-03-30T00:58:43.998Z,14.87
2018-03-30T01:01:12.331Z,15.13
2018-03-30T01:03:40.056Z,15.40
2018-03-30T01:06:07.755Z,15.60
2018-03-30T01:08:35.342Z,14.87
2018-03-30T01:11:08.517Z,15.97
2018-03-30T01:13:36.990Z,15.97
2018-03-30T01:16:04.650Z,15.73
2018-03-30T01:18:32.700Z,16.30
2018-03-30T01:21:00.382Z,15.53
2018-03-30T01:23:27.968Z,15.93
2018-03-30T01:25:55.629Z,16.80
2018-03-30T01:28:23.246Z,17.17
2018-03-30T01:30:50.862Z,17.63
2018-03-30T01:33:18.529Z,16.47
2018-03-30T01:35:46.104Z,17.27
2018-03-30T01:38:13.785Z,17.57
2018-03-30T01:40:41.407Z,18.77
2018-03-30T01:43:09.197Z,16.77
2018-03-30T01:45:36.777Z,18.57
2018-03-30T01:48:04.693Z,18.13
2018-03-30T01:50:32.281Z,18.50
2018-03-30T01:52:59.870Z,17.93
2018-03-30T01:55:27.567Z,17.47
2018-03-30T01:57:55.219Z,18.30
2018-03-30T02:00:22.813Z,18.13
2018-03-30T02:02:50.436Z,17.93
2018-03-30T02:05:18.030Z,18.13
2018-03-30T02:07:45.598Z,17.90
2018-03-30T02:10:13.508Z,18.20
2018-03-30T02:12:41.153Z,17.70
2018-03-30T02:15:08.740Z,18.00
2018-03-30T02:17:37.202Z,17.63
2018-03-30T02:20:04.833Z,17.33
2018-03-30T02:22:32.512Z,17.60
2018-03-30T02:25:00.527Z,17.57
2018-03-30T02:27:28.191Z,16.77
2018-03-30T02:29:55.764Z,18.40
2018-03-30T02:32:23.940Z,18.90
2018-03-30T02:34:52.126Z,18.40
2018-03-30T02:37:19.726Z,18.60
2018-03-30T02:39:47.382Z,17.80
2018-03-30T02:42:14.978Z,18.30
2018-03-30T02:44:42.638Z,18.33
2018-03-30T02:47:10.297Z,18.03
2018-03-30T02:49:38.763Z,17.63
2018-03-30T02:52:06.344Z,17.67
2018-03-30T02:54:34.011Z,18.33
2018-03-30T02:57:01.600Z,18.93
2018-03-30T02:59:30.251Z,17.70
2018-03-30T03:01:58.217Z,17.40
2018-03-30T03:04:25.860Z,18.10
2018-03-30T03:06:53.450Z,18.67
2018-03-30T03:09:21.100Z,19.10
2018-03-30T03:11:48.693Z,17.10
2018-03-30T03:14:16.292Z,18.47
2018-03-30T03:16:43.927Z,18.73
2018-03-30T03:19:11.525Z,17.93
2018-03-30T03:21:39.129Z,18.73
2018-03-30T03:24:06.901Z,18.63
2018-03-30T03:26:34.493Z,18.53
2018-03-30T03:29:02.095Z,19.00
2018-03-30T03:31:30.265Z,18.87
2018-03-30T03:33:57.859Z,18.97
2018-03-30T03:36:25.439Z,18.07
2018-03-30T03:38:53.280Z,18.93
2018-03-30T03:41:21.234Z,19.33
2018-03-30T03:43:48.812Z,19.77
2018-03-30T03:46:16.965Z,18.90
2018-03-30T03:48:44.554Z,19.23
2018-03-30T03:51:12.147Z,18.43
2018-03-30T03:53:39.802Z,18.53
2018-03-30T03:56:07.442Z,19.03
2018-03-30T03:58:35.025Z,18.47
2018-03-30T04:01:02.706Z,18.43
2018-03-30T04:03:30.280Z,18.47
2018-03-30T04:05:57.857Z,18.37
2018-03-30T04:08:27.228Z,18.17
2018-03-30T04:10:54.826Z,18.60
2018-03-30T04:13:22.422Z,18.47
2018-03-30T04:15:50.065Z,19.40
2018-03-30T04:18:17.654Z,20.03
2018-03-30T04:20:45.308Z,20.37
2018-03-30T04:23:13.477Z,20.43
2018-03-30T04:25:41.077Z,20.13
2018-03-30T04:28:08.659Z,20.63
2018-03-30T04:30:36.348Z,21.10
2018-03-30T04:33:03.925Z,23.00
2018-03-30T04:35:31.514Z,21.77
2018-03-30T04:37:59.216Z,23.57
2018-03-30T04:40:26.858Z,23.00
2018-03-30T04:42:54.455Z,22.47
2018-03-30T04:45:22.098Z,22.03
2018-03-30T04:47:49.881Z,22.83
2018-03-30T04:50:17.479Z,23.07
2018-03-30T04:52:45.107Z,21.83
2018-03-30T04:55:12.779Z,23.37
2018-03-30T04:57:40.392Z,22.20
2018-03-30T05:00:08.051Z,24.70
2018-03-30T05:02:36.366Z,25.23
2018-03-30T05:05:03.987Z,26.73
2018-03-30T05:07:31.644Z,28.10
2018-03-30T05:09:59.294Z,26.30
2018-03-30T05:12:26.912Z,28.07
2018-03-30T05:14:54.559Z,27.47
2018-03-30T05:17:22.147Z,27.63
2018-03-30T05:19:49.723Z,27.27
2018-03-30T05:22:17.356Z,26.03
2018-03-30T05:24:44.958Z,25.70
2018-03-30T05:27:12.594Z,27.63
2018-03-30T05:29:40.456Z,27.53
2018-03-30T05:32:08.117Z,26.47
2018-03-30T05:34:35.728Z,25.77
2018-03-30T05:37:03.379Z,23.63
2018-03-30T05:39:30.982Z,23.47
2018-03-30T05:41:58.582Z,23.77
2018-03-30T05:44:26.266Z,24.07
2018-03-30T05:46:53.935Z,23.03
2018-03-30T05:49:21.686Z,23.77
2018-03-30T05:51:49.347Z,23.50
2018-03-30T05:54:16.940Z,23.40
2018-03-30T05:56:44.555Z,23.80
2018-03-30T05:59:12.200Z,26.77
2018-03-30T06:01:39.808Z,27.63
2018-03-30T06:04:07.407Z,29.37
2018-03-30T06:06:35.070Z,29.73
2018-03-30T06:09:02.709Z,29.30
2018-03-30T06:11:30.322Z,29.93
2018-03-30T06:13:57.965Z,32.47
2018-03-30T06:16:25.568Z,33.23
2018-03-30T06:18:53.165Z,32.83
2018-03-30T06:21:20.818Z,31.13
2018-03-30T06:23:48.434Z,31.43
2018-03-30T06:26:16.020Z,33.87
2018-03-30T06:28:43.649Z,33.57
2018-03-30T06:31:11.251Z,32.90
2018-03-30T06:33:38.824Z,34.57
2018-03-30T06:36:06.452Z,35.13
2018-03-30T06:38:34.045Z,33.40
2018-03-30T06:41:01.645Z,33.00
2018-03-30T06:43:29.269Z,33.17
2018-03-30T06:45:56.852Z,32.70
2018-03-30T06:48:24.484Z,30.20
2018-03-30T06:50:52.760Z,30.80
2018-03-30T06:53:20.410Z,29.90
2018-03-30T06:55:48.001Z,30.23
2018-03-30T06:58:15.735Z,29.73
2018-03-30T07:00:43.330Z,30.03
2018-03-30T07:03:10.929Z,31.23
2018-03-30T07:05:38.799Z,30.67
2018-03-30T07:08:06.483Z,33.87
2018-03-30T07:10:34.103Z,29.50
2018-03-30T07:13:01.985Z,27.83
2018-03-30T07:15:29.627Z,27.97
2018-03-30T07:17:57.303Z,28.17
2018-03-30T07:20:24.937Z,29.00
2018-03-30T07:22:52.529Z,28.83
2018-03-30T07:25:20.149Z,27.40
2018-03-30T07:27:48.641Z,29.83
2018-03-30T07:30:16.233Z,29.33
2018-03-30T07:32:43.825Z,26.83
2018-03-30T07:35:11.490Z,28.63
2018-03-30T07:37:39.094Z,29.47
2018-03-30T07:40:06.771Z,29.60
2018-03-30T07:42:34.414Z,29.77
2018-03-30T07:45:02.027Z,29.67
2018-03-30T07:47:29.634Z,27.77
2018-03-30T07:49:57.315Z,28.57
2018-03-30T07:52:25.124Z,28.70
2018-03-30T07:54:52.706Z,29.20
2018-03-30T07:57:20.698Z,27.97
2018-03-30T07:59:48.375Z,29.33
2018-03-30T08:02:15.978Z,28.77
2018-03-30T08:04:43.916Z,27.53
2018-03-30T08:07:11.503Z,29.60
2018-03-30T08:09:39.109Z,30.43
2018-03-30T08:12:06.849Z,31.40
2018-03-30T08:14:34.423Z,28.70
2018-03-30T08:17:02.002Z,28.57
2018-03-30T08:19:29.661Z,29.13
2018-03-30T08:21:57.298Z,27.73
2018-03-30T08:24:25.125Z,28.17
2018-03-30T08:26:52.752Z,27.63
2018-03-30T08:29:20.360Z,34.93
2018-03-30T08:31:48.194Z,30.77
2018-03-30T08:34:15.853Z,28.67
2018-03-30T08:36:43.506Z,27.10
2018-03-30T08:39:11.097Z,27.63
2018-03-30T08:41:38.751Z,25.90
2018-03-30T08:44:06.342Z,24.53
2018-03-30T08:46:33.935Z,26.40
2018-03-30T08:49:05.390Z,27.07
2018-03-30T08:51:32.994Z,23.50
2018-03-30T08:54:00.781Z,23.83
2018-03-30T08:56:28.426Z,23.73
2018-03-30T08:58:56.079Z,21.80
2018-03-30T09:01:23.671Z,23.33
2018-03-30T09:03:51.570Z,22.23
2018-03-30T09:06:19.228Z,21.90
2018-03-30T09:08:46.831Z,21.70
2018-03-30T09:11:14.483Z,19.83
2018-03-30T09:13:42.095Z,22.70
2018-03-30T09:16:09.707Z,22.80
2018-03-30T09:18:37.415Z,22.00
2018-03-30T09:21:05.090Z,22.70
2018-03-30T09:23:32.743Z,23.00
2018-03-30T09:26:00.455Z,23.43
2018-03-30T09:28:28.044Z,22.80
2018-03-30T09:30:55.678Z,23.10
2018-03-30T09:33:30.317Z,23.43
2018-03-30T09:35:58.015Z,22.30
2018-03-30T09:38:25.602Z,22.67
2018-03-30T09:40:53.538Z,21.93
2018-03-30T09:43:21.140Z,20.03
2018-03-30T09:45:48.736Z,21.43
2018-03-30T09:48:16.871Z,20.40
2018-03-30T09:50:44.453Z,20.27
2018-03-30T09:53:12.044Z,21.03
2018-03-30T09:55:40.146Z,21.03
2018-03-30T09:58:07.736Z,18.27
2018-03-30T10:00:35.357Z,18.40
2018-03-30T10:03:04.770Z,18.20
2018-03-30T10:05:32.429Z,18.60
2018-03-30T10:08:00.022Z,17.90
2018-03-30T10:10:27.690Z,18.87
2018-03-30T10:12:55.326Z,28.58
2018-03-30T10:15:22.995Z,17.73
2018-03-30T10:17:51.333Z,20.05
2018-03-30T10:20:18.988Z,17.77
2018-03-30T10:22:47.520Z,17.77
2018-03-30T10:25:15.221Z,18.53
2018-03-30T10:27:42.787Z,18.67
2018-03-30T10:30:10.392Z,17.70
2018-03-30T10:32:38.336Z,17.57
2018-03-30T10:35:06.860Z,17.80
2018-03-30T10:37:34.519Z,16.87
2018-03-30T10:40:02.179Z,17.07
2018-03-30T10:42:29.784Z,16.63
2018-03-30T10:44:57.397Z,16.07
2018-03-30T10:47:25.046Z,15.57
2018-03-30T10:49:52.623Z,16.30
2018-03-30T10:52:20.270Z,16.03
2018-03-30T10:54:47.903Z,16.20
2018-03-30T10:57:15.562Z,15.53
2018-03-30T10:59:43.532Z,16.80
2018-03-30T11:02:11.172Z,15.40
2018-03-30T11:04:38.787Z,15.67
2018-03-30T11:07:06.476Z,14.70
2018-03-30T11:09:34.134Z,14.70
2018-03-30T11:12:01.728Z,14.60
2018-03-30T11:14:29.410Z,15.07
2018-03-30T11:16:57.038Z,14.90
2018-03-30T11:19:24.699Z,15.03
2018-03-30T11:21:52.298Z,15.27
2018-03-30T11:24:19.976Z,14.13
2018-03-30T11:26:48.343Z,13.97
2018-03-30T11:29:16.953Z,13.50
2018-03-30T11:31:44.655Z,12.77
2018-03-30T11:34:12.344Z,13.17
2018-03-30T11:36:39.940Z,13.40
2018-03-30T11:39:07.588Z,13.00
2018-03-30T11:41:35.243Z,13.47
2018-03-30T11:44:02.940Z,12.80
2018-03-30T11:46:30.684Z,12.87
2018-03-30T11:48:58.313Z,13.13
2018-03-30T11:51:25.951Z,12.30
2018-03-30T11:53:53.899Z,10.63
2018-03-30T11:56:21.712Z,10.57
2018-03-30T11:58:49.875Z,10.27
2018-03-30T12:01:17.772Z,10.70
2018-03-30T12:03:45.652Z,10.50
2018-03-30T12:06:13.540Z,10.37
2018-03-30T12:08:41.718Z,10.40
2018-03-30T12:11:09.356Z,10.83
2018-03-30T12:13:37.165Z,10.93
2018-03-30T12:16:04.968Z,9.47
2018-03-30T12:18:32.770Z,11.13
2018-03-30T12:21:00.634Z,10.60
2018-03-30T12:23:29.635Z,10.13
2018-03-30T12:25:57.422Z,10.70
2018-03-30T12:28:25.291Z,10.17
2018-03-30T12:30:53.257Z,10.20
2018-03-30T12:33:21.114Z,9.10
2018-03-30T12:35:48.983Z,9.37
2018-03-30T12:38:16.895Z,9.67
2018-03-30T12:40:44.795Z,10.13
2018-03-30T12:43:12.657Z,10.00
2018-03-30T12:45:40.889Z,10.10
2018-03-30T12:48:08.886Z,9.37
2018-03-30T12:50:36.721Z,9.30
2018-03-30T12:53:04.589Z,8.90
2018-03-30T12:55:32.390Z,9.27
2018-03-30T12:58:00.205Z,9.20
2018-03-30T13:00:28.645Z,9.73
2018-03-30T13:02:57.273Z,9.67
2018-03-30T13:05:25.224Z,10.17
2018-03-30T13:07:53.147Z,10.63
2018-03-30T13:10:21.053Z,11.23
2018-03-30T13:12:49.290Z,10.93
2018-03-30T13:15:17.139Z,10.30
2018-03-30T13:17:45.034Z,10.80
2018-03-30T13:20:12.873Z,9.90
2018-03-30T13:22:41.024Z,9.47
2018-03-30T13:25:08.791Z,9.10
2018-03-30T13:27:36.578Z,8.67
2018-03-30T13:30:04.562Z,9.20
2018-03-30T13:32:32.452Z,9.50
2018-03-30T13:35:00.329Z,10.43
2018-03-30T13:37:28.235Z,10.47
2018-03-30T13:39:56.097Z,10.40
2018-03-30T13:42:23.803Z,10.27
2018-03-30T13:44:52.521Z,10.40
2018-03-30T13:47:21.195Z,10.63
2018-03-30T13:49:49.692Z,11.20
2018-03-30T13:52:48.088Z,11.30
2018-03-30T13:55:16.744Z,11.17
2018-03-30T13:57:48.135Z,12.73
2018-03-30T14:00:25.940Z,12.37
2018-03-30T14:03:16.604Z,11.90
2018-03-30T14:08:46.969Z,11.83
2018-03-30T14:11:15.932Z,12.10
2018-03-30T14:13:43.802Z,12.00
2018-03-30T14:16:16.318Z,12.00
2018-03-30T14:18:46.915Z,12.20
2018-03-30T14:21:15.862Z,11.70
2018-03-30T14:23:43.788Z,12.00
2018-03-30T14:26:14.238Z,11.20
2018-03-30T14:28:59.851Z,10.90
2018-03-30T14:31:36.503Z,10.73
2018-03-30T14:34:05.651Z,10.50
2018-03-30T14:36:40.160Z,18.07
2018-03-30T14:39:24.783Z,11.47
2018-03-30T14:41:53.698Z,11.57
2018-03-30T14:44:54.118Z,12.47
2018-03-30T14:47:30.679Z,12.13
2018-03-30T14:50:08.568Z,11.97
2018-03-30T14:52:57.094Z,12.00
2018-03-30T14:55:43.543Z,12.00
2018-03-30T14:58:25.163Z,11.83
2018-03-30T15:01:08.774Z,11.20
2018-03-30T15:03:39.847Z,11.70
2018-03-30T15:06:12.440Z,12.40
2018-03-30T15:08:44.125Z,12.27
2018-03-30T15:11:22.855Z,12.93
2018-03-30T15:14:02.250Z,13.27
2018-03-30T15:16:34.663Z,12.40
2018-03-30T15:19:06.347Z,13.30
2018-03-30T15:21:35.644Z,12.80
2018-03-30T15:24:06.356Z,12.20
2018-03-30T15:26:36.302Z,11.97
2018-03-30T15:29:04.968Z,11.27
2018-03-30T15:31:40.621Z,12.97
2018-03-30T15:34:11.372Z,12.57
2018-03-30T15:39:39.230Z,12.50
2018-03-30T15:42:07.462Z,12.23
2018-03-30T15:44:35.427Z,13.13
2018-03-30T15:47:03.348Z,13.53
2018-03-30T15:49:31.201Z,12.23
2018-03-30T15:52:00.943Z,13.37
2018-03-30T15:54:28.249Z,12.53
2018-03-30T15:56:58.204Z,13.03
2018-03-30T15:59:25.959Z,13.40
2018-03-30T16:01:53.895Z,13.97
2018-03-30T16:04:22.553Z,12.23
2018-03-30T16:06:50.501Z,12.30
2018-03-30T16:09:20.109Z,12.43
2018-03-30T16:11:49.075Z,15.07
2018-03-30T16:14:17.070Z,15.50
2018-03-30T16:16:45.016Z,15.13
2018-03-30T16:19:13.325Z,15.80
2018-03-30T16:21:40.603Z,15.30
2018-03-30T16:24:07.898Z,15.43
2018-03-30T16:26:35.290Z,16.37
2018-03-30T16:29:02.636Z,16.43
2018-03-30T16:31:30.769Z,17.10
2018-03-30T16:33:58.383Z,16.97
2018-03-30T16:36:25.669Z,17.80
2018-03-30T16:38:52.942Z,16.77
2018-03-30T16:41:20.324Z,15.70
2018-03-30T16:43:47.627Z,15.67
2018-03-30T16:46:14.937Z,13.93
2018-03-30T16:48:42.319Z,15.30
2018-03-30T16:51:10.286Z,17.93
2018-03-30T16:53:37.665Z,23.33
2018-03-30T16:56:05.091Z,24.03
2018-03-30T16:58:32.432Z,27.77
2018-03-30T17:00:59.852Z,29.23
2018-03-30T17:03:27.630Z,36.60
2018-03-30T17:05:55.317Z,38.63
2018-03-30T17:08:22.639Z,37.23
2018-03-30T17:10:50.581Z,37.33
2018-03-30T17:13:17.916Z,36.80
2018-03-30T17:15:45.257Z,28.53
2018-03-30T17:18:13.304Z,26.73
2018-03-30T17:20:40.617Z,24.37
2018-03-30T17:23:08.018Z,21.57
2018-03-30T17:25:35.421Z,22.73
2018-03-30T17:28:02.944Z,22.87
2018-03-30T17:30:30.298Z,29.90
2018-03-30T17:32:58.949Z,23.63
2018-03-30T17:35:26.346Z,20.60
2018-03-30T17:37:53.691Z,22.10
2018-03-30T17:40:21.208Z,22.73
2018-03-30T17:42:49.629Z,24.00
2018-03-30T17:45:16.979Z,22.93
2018-03-30T17:47:44.477Z,22.50
2018-03-30T17:50:11.862Z,20.70
2018-03-30T17:52:39.209Z,21.57
2018-03-30T17:55:06.581Z,16.30
2018-03-30T17:57:33.915Z,18.00
2018-03-30T18:00:01.247Z,18.00
2018-03-30T18:02:28.662Z,17.73
2018-03-30T18:04:56.947Z,20.53
2018-03-30T18:07:24.354Z,20.57
2018-03-30T18:09:52.022Z,20.83
2018-03-30T18:12:19.431Z,18.67
2018-03-30T18:14:46.780Z,19.70
2018-03-30T18:17:14.173Z,17.93
2018-03-30T18:19:41.577Z,16.37
2018-03-30T18:22:09.720Z,17.47
2018-03-30T18:24:37.148Z,15.90
2018-03-30T18:27:04.477Z,21.03
2018-03-30T18:29:31.845Z,24.40
2018-03-30T18:31:59.558Z,22.70
2018-03-30T18:34:26.936Z,21.37
2018-03-30T18:36:54.281Z,20.97
2018-03-30T18:39:21.797Z,19.27
2018-03-30T18:41:49.174Z,16.27
2018-03-30T18:44:16.494Z,17.67
2018-03-30T18:46:43.862Z,17.67
2018-03-30T18:49:11.186Z,16.57
2018-03-30T18:51:38.899Z,16.50
2018-03-30T18:54:06.287Z,16.97
2018-03-30T18:56:33.628Z,17.90
2018-03-30T18:59:00.963Z,17.53
2018-03-30T19:01:28.730Z,17.37
2018-03-30T19:03:56.123Z,17.70
2018-03-30T19:06:23.529Z,17.07
2018-03-30T19:08:51.066Z,17.23
2018-03-30T19:11:18.411Z,17.47
2018-03-30T19:13:45.743Z,17.80
2018-03-30T19:16:13.390Z,18.47
2018-03-30T19:18:40.740Z,16.83
2018-03-30T19:21:08.100Z,18.63
2018-03-30T19:23:35.488Z,18.00
2018-03-30T19:26:02.837Z,18.40
2018-03-30T19:28:30.176Z,17.53
2018-03-30T19:30:57.973Z,18.90
2018-03-30T19:33:25.326Z,18.63
2018-03-30T19:35:52.659Z,18.50
2018-03-30T19:38:20.059Z,18.27
2018-03-30T19:40:47.383Z,18.00
2018-03-30T19:43:14.782Z,18.17
2018-03-30T19:45:42.461Z,18.13
2018-03-30T19:48:09.804Z,18.33
2018-03-30T19:50:37.121Z,18.30
2018-03-30T19:53:04.743Z,19.43
2018-03-30T19:55:32.076Z,18.70
2018-03-30T19:57:59.400Z,19.10
2018-03-30T20:00:26.952Z,18.53
2018-03-30T20:02:55.038Z,17.33
2018-03-30T20:05:22.572Z,19.33
2018-03-30T20:07:49.944Z,19.77
2018-03-30T20:10:17.553Z,17.10
2018-03-30T20:12:44.896Z,16.40
2018-03-30T20:15:12.343Z,17.27
2018-03-30T20:17:39.702Z,16.57
2018-03-30T20:20:07.055Z,16.77
2018-03-30T20:22:34.494Z,16.17
2018-03-30T20:25:01.836Z,16.07
2018-03-30T20:27:29.165Z,15.63
2018-03-30T20:29:56.756Z,15.87
2018-03-30T20:32:24.094Z,15.77
2018-03-30T20:34:51.405Z,16.80
2018-03-30T20:37:19.468Z,17.00
2018-03-30T20:39:46.802Z,16.43
2018-03-30T20:42:14.136Z,16.17
2018-03-30T20:44:41.506Z,15.60
2018-03-30T20:47:08.822Z,16.13
2018-03-30T20:49:36.124Z,16.03
2018-03-30T20:52:03.811Z,15.83
2018-03-30T20:54:31.221Z,17.33
2018-03-30T20:56:59.079Z,19.03
2018-03-30T20:59:27.469Z,18.73
2018-03-30T21:01:54.804Z,17.60
2018-03-30T21:04:22.123Z,18.87
2018-03-30T21:06:49.505Z,19.20
2018-03-30T21:09:17.477Z,19.30
2018-03-30T21:11:45.071Z,19.40
2018-03-30T21:14:12.487Z,19.80
2018-03-30T21:16:39.849Z,18.63
2018-03-30T21:19:07.102Z,20.13
2018-03-30T21:21:34.405Z,20.50
2018-03-30T21:24:01.727Z,21.07
2018-03-30T21:26:28.963Z,20.80
2018-03-30T21:28:56.359Z,21.67
2018-03-30T21:31:23.564Z,21.73
2018-03-30T21:33:50.737Z,22.77
2018-03-30T21:36:18.046Z,22.80
2018-03-30T21:38:45.175Z,23.60
2018-03-30T21:41:12.568Z,24.27
2018-03-30T21:43:39.943Z,22.83
2018-03-30T21:46:07.041Z,22.70
2018-03-30T21:48:34.069Z,23.77
2018-03-30T21:51:01.178Z,22.70
2018-03-30T21:53:28.200Z,23.33
2018-03-30T21:55:55.244Z,23.40
2018-03-30T21:58:22.339Z,23.07
2018-03-30T22:00:49.360Z,22.63
2018-03-30T22:03:16.388Z,22.67
2018-03-30T22:05:43.782Z,20.70
2018-03-30T22:08:10.815Z,20.77
2018-03-30T22:10:37.851Z,20.43
2018-03-30T22:13:05.204Z,20.83
2018-03-30T22:15:32.243Z,20.73
2018-03-30T22:17:59.291Z,20.03
2018-03-30T22:20:26.694Z,20.47
2018-03-30T22:22:53.743Z,20.13
2018-03-30T22:25:20.781Z,19.60
2018-03-30T22:27:47.868Z,20.37
2018-03-30T22:30:14.937Z,19.30
2018-03-30T22:32:41.977Z,20.07
2018-03-30T22:35:09.070Z,19.90
2018-03-30T22:37:36.117Z,20.23
2018-03-30T22:40:03.157Z,19.87
2018-03-30T22:42:30.226Z,19.33
2018-03-30T22:44:57.256Z,19.13
2018-03-30T22:47:24.285Z,19.10
2018-03-30T22:49:51.587Z,18.83
2018-03-30T22:52:18.626Z,18.73
2018-03-30T22:54:45.678Z,18.17
2018-03-30T22:57:13.291Z,18.33
2018-03-30T22:59:40.326Z,20.20
2018-03-30T23:02:07.359Z,20.10
2018-03-30T23:04:34.659Z,19.83
2018-03-30T23:07:01.694Z,18.90
2018-03-30T23:09:29.117Z,20.37
2018-03-30T23:11:56.217Z,20.30
2018-03-30T23:14:23.550Z,20.70
2018-03-30T23:16:50.580Z,19.80
2018-03-30T23:19:17.681Z,20.83
2018-03-30T23:21:44.782Z,20.57
2018-03-30T23:24:11.833Z,20.40
2018-03-30T23:26:38.950Z,18.80
2018-03-30T23:29:06.072Z,19.77
2018-03-30T23:31:33.111Z,20.67
2018-03-30T23:34:00.484Z,20.10
2018-03-30T23:36:27.573Z,20.90
2018-03-30T23:38:54.712Z,19.87
2018-03-30T23:41:21.814Z,20.30
2018-03-30T23:43:48.864Z,19.80
2018-03-30T23:46:16.651Z,18.77
2018-03-30T23:48:43.749Z,18.87
2018-03-30T23:51:10.791Z,20.53
2018-03-30T23:53:38.145Z,18.70
2018-03-30T23:56:05.249Z,19.13
2018-03-30T23:58:32.298Z,19.87
